Time;durP1;ratioP1;P1;durP2;ratioP2;P2;SDS_P1;SDS_P2;PMS_P1;PMS_P2;Temp;Humidity;BMP_temperature;BMP_pressure;BME280_temperature;BME280_humidity;BME280_pressure;Samples;Min_cycle;Max_cycle;Signal;HPM_P1;HPM_P2
2022/11/07 00:01:35;;;;;;;25.63;10.10;;;;;;;9.55;100.00;100301.66;6322799;28;20447;-75
2022/11/07 00:04:36;;;;;;;20.52;11.18;;;;;;;9.55;100.00;100307.69;6304770;28;20105;-75
2022/11/07 00:07:37;;;;;;;18.30;9.93;;;;;;;9.54;100.00;100302.59;6322708;28;20036;-75
2022/11/07 00:10:38;;;;;;;23.73;10.57;;;;;;;9.55;100.00;100306.84;6304462;28;20051;-77
2022/11/07 00:13:41;;;;;;;22.73;10.73;;;;;;;9.62;100.00;100316.88;6304644;28;20083;-77
2022/11/07 00:16:46;;;;;;;26.27;10.70;;;;;;;9.63;100.00;100315.94;6322574;28;20404;-77
2022/11/07 00:19:48;;;;;;;29.17;11.93;;;;;;;9.69;100.00;100315.63;6304291;28;20135;-77
2022/11/07 00:22:48;;;;;;;20.60;10.48;;;;;;;9.71;100.00;100306.91;6322414;28;20488;-77
2022/11/07 00:25:49;;;;;;;18.88;10.18;;;;;;;9.71;100.00;100306.91;6321503;28;20118;-77
2022/11/07 00:28:50;;;;;;;32.97;12.23;;;;;;;9.72;100.00;100301.63;6321957;28;20040;-76
2022/11/07 00:31:51;;;;;;;27.88;11.40;;;;;;;9.72;100.00;100309.44;6322014;28;20407;-76
2022/11/07 00:34:51;;;;;;;30.30;11.10;;;;;;;9.74;100.00;100312.78;6304038;28;20051;-75
2022/11/07 00:37:55;;;;;;;22.15;9.95;;;;;;;9.68;100.00;100305.31;6322146;28;20071;-75
2022/11/07 00:40:57;;;;;;;22.13;10.45;;;;;;;9.66;100.00;100296.72;6296349;28;20048;-75
2022/11/07 00:43:58;;;;;;;22.92;10.35;;;;;;;9.74;100.00;100306.72;6295697;28;20055;-77
2022/11/07 00:46:59;;;;;;;27.65;10.10;;;;;;;9.75;100.00;100293.63;6295720;28;20396;-75
2022/11/07 00:49:59;;;;;;;27.83;10.80;;;;;;;9.77;100.00;100290.94;6296775;28;20062;-77
2022/11/07 00:53:02;;;;;;;24.80;9.13;;;;;;;9.81;100.00;100290.69;6295551;28;20044;-77
2022/11/07 00:56:06;;;;;;;25.35;11.95;;;;;;;9.83;100.00;100290.59;6295513;28;20063;-75
2022/11/07 00:59:07;;;;;;;19.35;10.07;;;;;;;9.81;100.00;100290.69;6295471;28;20040;-75
2022/11/07 01:02:08;;;;;;;22.80;10.43;;;;;;;9.78;100.00;100285.66;6296499;28;20060;-74
2022/11/07 01:05:09;;;;;;;22.52;10.25;;;;;;;9.76;100.00;100286.63;6296720;28;20067;-75
2022/11/07 01:08:12;;;;;;;23.30;11.00;;;;;;;9.77;100.00;100277.91;6296530;28;20111;-77
2022/11/07 01:11:13;;;;;;;30.23;11.50;;;;;;;9.79;100.00;100282.09;6295246;28;20048;-77
2022/11/07 01:14:18;;;;;;;23.00;11.20;;;;;;;9.82;100.00;100278.47;6295343;28;20037;-75
2022/11/07 01:17:19;;;;;;;24.75;11.45;;;;;;;9.80;100.00;100277.72;6295165;28;20389;-77
2022/11/07 01:20:19;;;;;;;26.15;11.10;;;;;;;9.78;100.00;100282.19;6295266;28;20095;-77
2022/11/07 01:23:21;;;;;;;29.05;12.18;;;;;;;9.74;100.00;100280.66;6278316;28;20067;-77
2022/11/07 01:26:22;;;;;;;24.77;11.38;;;;;;;9.79;100.00;100278.66;6296432;28;20051;-76
2022/11/07 01:29:23;;;;;;;27.17;12.75;;;;;;;9.80;100.00;100280.31;6294842;28;20036;-77
2022/11/07 01:32:27;;;;;;;22.83;10.23;;;;;;;9.74;100.00;100271.09;6295020;28;20051;-78
2022/11/07 01:35:28;;;;;;;35.22;12.48;;;;;;;9.79;100.00;100265.63;6296194;28;20046;-77
2022/11/07 01:38:29;;;;;;;26.02;11.55;;;;;;;9.82;100.00;100268.06;6296260;28;20040;-77
2022/11/07 01:41:33;;;;;;;29.67;11.60;;;;;;;9.87;100.00;100268.66;6297603;28;20109;-75
2022/11/07 01:44:39;;;;;;;28.17;11.68;;;;;;;9.84;100.00;100271.41;6301090;28;20048;-75
2022/11/07 01:47:40;;;;;;;29.58;11.85;;;;;;;9.82;100.00;100260.25;6301045;28;20044;-75
2022/11/07 01:50:41;;;;;;;24.17;11.50;;;;;;;9.87;100.00;100279.91;6300944;28;20544;-77
2022/11/07 01:53:41;;;;;;;27.27;11.43;;;;;;;9.87;100.00;100279.91;6300847;28;20041;-74
2022/11/07 01:56:44;;;;;;;27.27;11.45;;;;;;;9.92;100.00;100281.44;6299608;28;20045;-75
2022/11/07 01:59:46;;;;;;;24.45;12.85;;;;;;;9.93;100.00;100280.53;6300780;28;20416;-76
2022/11/07 02:02:51;;;;;;;28.93;12.00;;;;;;;9.88;100.00;100279.00;6282528;28;20056;-76
2022/11/07 02:05:59;;;;;;;28.10;12.45;;;;;;;9.83;100.00;100277.56;6300723;28;20036;-77
2022/11/07 02:09:00;;;;;;;27.80;12.77;;;;;;;9.93;100.00;100280.53;6299437;28;20135;-74
2022/11/07 02:12:04;;;;;;;24.27;11.85;;;;;;;9.91;100.00;100284.97;6299431;28;20036;-74
2022/11/07 02:15:08;;;;;;;25.00;11.52;;;;;;;9.94;100.00;100276.97;6299144;28;20480;-75
2022/11/07 02:18:09;;;;;;;36.30;12.73;;;;;;;9.94;100.00;100266.56;6299211;28;20045;-75
2022/11/07 02:21:41;;;;;;;24.95;10.77;;;;;;;9.96;100.00;100272.53;6298936;28;20498;-75
2022/11/07 02:24:42;;;;;;;22.87;10.67;;;;;;;9.95;100.00;100268.25;6298918;28;20500;-77
2022/11/07 02:27:45;;;;;;;36.25;12.45;;;;;;;10.01;100.00;100260.94;6300029;28;20288;-77
2022/11/07 02:30:46;;;;;;;24.08;10.85;;;;;;;10.07;100.00;100275.41;6298667;28;20135;-77
2022/11/07 02:33:46;;;;;;;36.83;13.30;;;;;;;10.12;100.00;100280.34;6298616;28;20055;-77
2022/11/07 02:36:48;;;;;;;27.85;13.25;;;;;;;10.16;100.00;100279.25;6299987;28;20109;-75
2022/11/07 02:39:49;;;;;;;26.73;12.90;;;;;;;10.18;100.00;100280.00;6298601;28;20529;-77
2022/11/07 02:42:50;;;;;;;38.25;15.40;;;;;;;10.11;100.00;100269.09;6299684;28;20043;-77
2022/11/07 02:45:52;;;;;;;35.72;15.10;;;;;;;10.10;100.00;100270.00;6298540;28;20044;-77
2022/11/07 02:48:56;;;;;;;35.28;14.35;;;;;;;10.14;100.00;100274.13;6298519;28;20045;-77
2022/11/07 02:51:56;;;;;;;40.97;14.70;;;;;;;10.19;100.00;100279.94;6297755;28;20048;-77
2022/11/07 02:54:57;;;;;;;33.33;13.77;;;;;;;10.19;100.00;100268.63;6299963;28;20067;-77
2022/11/07 02:57:58;;;;;;;30.02;12.40;;;;;;;10.20;100.00;100270.34;6281538;28;20079;-77
2022/11/07 03:01:05;;;;;;;33.90;12.70;;;;;;;10.17;100.00;100281.78;6298130;28;20389;-77
2022/11/07 03:04:06;;;;;;;33.28;12.80;;;;;;;10.19;100.00;100282.53;6299226;28;20484;-75
2022/11/07 03:07:07;;;;;;;27.52;11.65;;;;;;;10.24;100.00;100290.94;6299347;28;20044;-75
2022/11/07 03:10:09;;;;;;;26.83;12.30;;;;;;;10.24;100.00;100290.94;6298058;28;20036;-77
2022/11/07 03:13:10;;;;;;;27.50;12.02;;;;;;;10.23;100.00;100296.22;6299111;28;20048;-77
2022/11/07 03:16:11;;;;;;;32.97;12.68;;;;;;;10.24;100.00;100292.72;6298090;28;20045;-77
2022/11/07 03:19:11;;;;;;;26.83;12.73;;;;;;;10.22;100.00;100298.00;6297827;28;20048;-75
2022/11/07 03:22:12;;;;;;;26.38;13.07;;;;;;;10.28;100.00;100302.88;6298811;28;20122;-75
2022/11/07 03:25:13;;;;;;;26.92;12.27;;;;;;;10.27;100.00;100295.13;6298721;28;20450;-74
2022/11/07 03:28:13;;;;;;;29.55;11.98;;;;;;;10.27;100.00;100295.13;6280739;28;20059;-75
2022/11/07 03:31:14;;;;;;;22.50;10.90;;;;;;;10.37;100.00;100300.72;6298561;28;20045;-74
2022/11/07 03:34:14;;;;;;;26.38;10.63;;;;;;;10.32;100.00;100297.53;6297405;28;20041;-76
2022/11/07 03:37:15;;;;;;;25.75;12.13;;;;;;;10.33;100.00;100291.38;6297309;28;20040;-75
2022/11/07 03:40:16;;;;;;;29.58;12.07;;;;;;;10.36;100.00;100299.03;6297201;28;20048;-77
2022/11/07 03:43:20;;;;;;;25.67;10.18;;;;;;;10.41;100.00;100291.78;6298319;28;20044;-75
2022/11/07 03:46:20;;;;;;;31.70;10.75;;;;;;;10.37;100.00;100282.44;6297118;28;20067;-77
2022/11/07 03:49:21;;;;;;;30.83;11.45;;;;;;;10.35;100.00;100282.53;6296860;28;20052;-75
2022/11/07 03:52:22;;;;;;;28.75;12.77;;;;;;;10.26;100.00;100281.25;6296851;28;20066;-77
2022/11/07 03:55:22;;;;;;;25.27;11.32;;;;;;;10.32;100.00;100290.53;6280262;28;20048;-76
2022/11/07 03:58:24;;;;;;;24.73;11.07;;;;;;;10.37;100.00;100303.31;6296811;28;20040;-77
2022/11/07 04:01:25;;;;;;;22.73;10.65;;;;;;;10.33;100.00;100294.81;6297882;28;20044;-75
2022/11/07 04:04:26;;;;;;;24.98;9.63;;;;;;;10.40;100.00;100292.72;6295797;28;20064;-77
2022/11/07 04:07:27;;;;;;;17.92;9.25;;;;;;;10.39;100.00;100301.47;6297727;28;20072;-77
2022/11/07 04:10:28;;;;;;;17.08;8.45;;;;;;;10.38;100.00;100294.59;6297608;28;20514;-74
2022/11/07 04:20:07;;;;;;;23.10;9.63;;;;;;;10.41;100.00;100308.28;6297369;28;20105;-77
2022/11/07 04:23:08;;;;;;;19.88;9.85;;;;;;;10.43;100.00;100303.81;6297281;28;20048;-75
2022/11/07 04:29:28;;;;;;;14.95;8.70;;;;;;;10.38;100.00;100300.63;6297060;28;20481;-77
2022/11/07 04:32:29;;;;;;;14.75;8.80;;;;;;;10.38;100.00;100297.19;6297187;28;20045;-75
2022/11/07 04:35:32;;;;;;;21.77;9.70;;;;;;;10.45;100.00;100304.56;6295889;28;20064;-77
2022/11/07 04:38:32;;;;;;;21.90;9.52;;;;;;;10.45;100.00;100315.00;6295797;28;20085;-77
2022/11/07 04:41:36;;;;;;;21.17;9.50;;;;;;;10.46;100.00;100319.31;6296979;28;20056;-77
2022/11/07 04:44:37;;;;;;;16.85;8.95;;;;;;;10.49;100.00;100323.50;6295589;28;20109;-77
2022/11/07 04:47:40;;;;;;;19.67;8.85;;;;;;;10.46;100.00;100332.34;6278934;28;20052;-77
2022/11/07 04:50:44;;;;;;;18.60;8.60;;;;;;;10.52;100.00;100322.47;6296705;28;20068;-77
2022/11/07 04:53:46;;;;;;;16.90;8.38;;;;;;;10.48;100.00;100327.88;6296652;28;20101;-76
2022/11/07 04:56:46;;;;;;;20.50;9.50;;;;;;;10.47;100.00;100327.97;6303977;28;20415;-77
2022/11/07 04:59:52;;;;;;;18.30;8.82;;;;;;;10.47;100.00;100323.56;6321394;28;20109;-77
2022/11/07 05:02:53;;;;;;;17.60;8.77;;;;;;;10.42;100.00;100316.97;6302678;28;20051;-77
2022/11/07 05:05:54;;;;;;;19.17;8.68;;;;;;;10.46;100.00;100323.69;6314906;28;20403;-77
2022/11/07 05:08:54;;;;;;;16.92;8.88;;;;;;;10.35;100.00;100329.47;6297499;28;20472;-75
2022/11/07 05:11:55;;;;;;;20.38;8.95;;;;;;;10.47;100.00;100325.34;6295950;28;20036;-77
2022/11/07 05:14:56;;;;;;;19.25;8.90;;;;;;;10.43;100.00;100332.50;6317676;28;20048;-74
2022/11/07 05:17:57;;;;;;;14.95;8.70;;;;;;;10.45;100.00;100332.44;6298506;28;20385;-74
2022/11/07 05:20:57;;;;;;;14.18;8.27;;;;;;;10.38;100.00;100339.75;6305073;28;20123;-75
2022/11/07 05:23:58;;;;;;;17.13;8.82;;;;;;;10.38;100.00;100338.91;6320102;28;20082;-76
2022/11/07 05:26:59;;;;;;;20.83;10.00;;;;;;;10.42;100.00;100335.22;6316971;28;20075;-74
2022/11/07 05:29:59;;;;;;;16.33;8.23;;;;;;;10.44;100.00;100338.59;6296593;28;20044;-74
2022/11/07 05:33:00;;;;;;;20.42;9.15;;;;;;;10.43;100.00;100332.50;6321990;28;20040;-77
2022/11/07 05:36:14;;;;;;;16.40;9.05;;;;;;;10.48;100.00;100340.94;6297051;28;20162;-77
2022/11/07 05:39:17;;;;;;;12.82;7.80;;;;;;;10.37;100.00;100342.44;6295887;28;20383;-77
2022/11/07 05:42:18;;;;;;;17.70;9.63;;;;;;;10.47;100.00;100335.78;6295437;28;20044;-77
2022/11/07 05:45:18;;;;;;;19.40;9.18;;;;;;;10.47;100.00;100341.00;6285519;28;20416;-77
2022/11/07 05:48:19;;;;;;;20.80;12.55;;;;;;;10.46;100.00;100340.16;6317123;28;20044;-77
2022/11/07 05:51:20;;;;;;;17.25;8.80;;;;;;;10.40;100.00;100339.69;6321358;28;20123;-77
2022/11/07 05:54:20;;;;;;;17.27;10.45;;;;;;;10.45;100.00;100354.13;6297277;28;20048;-78
2022/11/07 05:57:21;;;;;;;27.45;11.90;;;;;;;10.57;100.00;100349.16;6316163;28;20035;-77
2022/11/07 06:00:22;;;;;;;19.60;9.55;;;;;;;10.54;100.00;100346.72;6321010;28;20044;-77
2022/11/07 06:03:25;;;;;;;20.63;10.77;;;;;;;10.54;100.00;100357.16;6317082;28;20044;-77
2022/11/07 06:06:26;;;;;;;15.63;8.57;;;;;;;10.51;100.00;100357.34;6298610;28;20045;-77
2022/11/07 06:09:26;;;;;;;15.82;8.68;;;;;;;10.56;100.00;100366.56;6306604;28;20040;-77
2022/11/07 06:12:27;;;;;;;21.75;10.05;;;;;;;10.57;100.00;100362.22;6320943;28;20119;-77
2022/11/07 06:15:30;;;;;;;15.77;8.50;;;;;;;10.59;100.00;100362.97;6320792;28;20072;-74
2022/11/07 06:18:31;;;;;;;29.42;14.63;;;;;;;10.62;100.00;100358.38;6298984;28;20084;-77
2022/11/07 06:21:33;;;;;;;36.33;14.77;;;;;;;10.71;100.00;100375.31;6299784;28;20073;-77
2022/11/07 06:24:34;;;;;;;21.42;10.48;;;;;;;10.73;100.00;100381.31;6313286;28;20491;-77
2022/11/07 06:27:37;;;;;;;22.42;10.43;;;;;;;10.70;100.00;100378.84;6320911;28;20048;-77
2022/11/07 06:30:38;;;;;;;20.23;9.88;;;;;;;10.63;100.00;100382.75;6315833;28;20053;-76
2022/11/07 06:33:39;;;;;;;25.67;10.57;;;;;;;10.61;100.00;100382.00;6299567;28;20056;-76
2022/11/07 06:36:40;;;;;;;20.33;10.13;;;;;;;10.63;100.00;100385.34;6298650;28;20056;-75
2022/11/07 06:39:41;;;;;;;20.25;11.27;;;;;;;10.68;100.00;100383.31;6298479;28;20083;-75
2022/11/07 06:42:41;;;;;;;19.80;9.07;;;;;;;10.76;100.00;100391.56;6298425;28;20040;-75
2022/11/07 06:45:43;;;;;;;17.27;8.15;;;;;;;10.71;100.00;100396.19;6299385;28;20043;-75
2022/11/07 06:48:45;;;;;;;25.70;10.77;;;;;;;10.71;100.00;100383.16;6299692;28;20041;-75
2022/11/07 06:51:45;;;;;;;21.85;10.75;;;;;;;10.75;100.00;100397.72;6298198;28;20511;-76
2022/11/07 06:54:46;;;;;;;16.58;9.57;;;;;;;10.63;100.00;100404.44;6299156;28;20076;-77
2022/11/07 06:57:47;;;;;;;18.35;9.65;;;;;;;10.63;100.00;100412.28;6298090;28;20047;-75
2022/11/07 07:00:48;;;;;;;16.52;9.63;;;;;;;10.66;100.00;100401.66;6299125;28;20040;-75
2022/11/07 07:03:48;;;;;;;16.05;7.72;;;;;;;10.54;100.00;100401.50;6299086;28;20048;-77
2022/11/07 07:06:49;;;;;;;16.15;8.38;;;;;;;10.60;100.00;100406.38;6298970;28;20093;-77
2022/11/07 07:09:50;;;;;;;17.13;9.63;;;;;;;10.71;100.00;100404.03;6297596;28;20049;-75
2022/11/07 07:12:52;;;;;;;22.92;10.15;;;;;;;10.64;100.00;100411.34;6298958;28;20079;-75
2022/11/07 07:15:56;;;;;;;19.15;8.95;;;;;;;10.62;100.00;100402.75;6297534;28;20480;-76
2022/11/07 07:18:56;;;;;;;15.73;8.75;;;;;;;10.62;100.00;100407.13;6297494;28;20048;-77
2022/11/07 07:21:57;;;;;;;17.67;8.82;;;;;;;10.58;100.00;100403.00;6298714;28;20047;-75
2022/11/07 07:25:00;;;;;;;21.95;9.05;;;;;;;10.61;100.00;100388.03;6297402;28;20059;-75
2022/11/07 07:28:01;;;;;;;17.60;8.77;;;;;;;10.62;100.00;100391.47;6303055;28;20563;-75
2022/11/07 07:31:14;;;;;;;16.25;7.97;;;;;;;10.73;100.00;100393.50;6308557;28;20054;-76
2022/11/07 07:34:15;;;;;;;18.52;8.25;;;;;;;10.78;100.00;100389.69;6304394;28;20079;-75
2022/11/07 07:37:15;;;;;;;17.20;7.85;;;;;;;10.79;100.00;100385.31;6310470;28;20041;-75
2022/11/07 07:40:17;;;;;;;16.63;8.15;;;;;;;10.85;100.00;100392.78;6313142;28;20145;-75
2022/11/07 07:43:18;;;;;;;14.23;8.85;;;;;;;10.82;100.00;100395.59;6306165;28;20082;-75
2022/11/07 07:46:22;;;;;;;15.23;7.97;;;;;;;10.84;100.00;100393.75;6296825;28;20040;-75
2022/11/07 07:49:25;;;;;;;15.40;8.00;;;;;;;10.93;100.00;100402.81;6280117;28;20045;-75
2022/11/07 07:52:28;;;;;;;16.88;8.27;;;;;;;10.90;100.00;100403.84;6296744;28;20055;-76
2022/11/07 07:55:29;;;;;;;10.75;6.55;;;;;;;10.82;100.00;100401.66;6299613;28;20041;-75
2022/11/07 07:58:30;;;;;;;17.80;9.13;;;;;;;10.87;100.00;100397.03;6321804;28;20047;-75
2022/11/07 08:01:31;;;;;;;12.43;6.38;;;;;;;10.85;100.00;100392.78;6322953;28;20040;-75
2022/11/07 08:04:34;;;;;;;9.68;5.75;;;;;;;10.88;100.00;100393.47;6322869;28;20432;-75
2022/11/07 08:07:34;;;;;;;13.13;7.80;;;;;;;10.94;100.00;100389.69;6304445;28;20052;-76
2022/11/07 08:10:35;;;;;;;11.23;6.80;;;;;;;10.87;100.00;100385.72;6322621;28;20047;-75
2022/11/07 08:13:38;;;;;;;11.93;6.45;;;;;;;10.76;100.00;100390.72;6297131;28;20040;-75
2022/11/07 08:16:39;;;;;;;9.60;6.45;;;;;;;10.75;100.00;100389.03;6286522;28;20498;-75
2022/11/07 08:19:40;;;;;;;12.20;7.13;;;;;;;10.82;100.00;100396.44;6297439;28;20041;-77
2022/11/07 08:22:40;;;;;;;9.88;6.25;;;;;;;10.77;100.00;100392.38;6299399;28;20037;-77
2022/11/07 08:25:42;;;;;;;9.68;6.05;;;;;;;10.61;100.00;100389.81;6303219;28;20152;-77
2022/11/07 08:28:43;;;;;;;7.47;5.28;;;;;;;10.60;100.00;100385.50;6297074;28;20044;-77
2022/11/07 08:31:43;;;;;;;9.38;6.05;;;;;;;10.75;100.00;100389.88;6295975;28;20494;-77
2022/11/07 08:34:44;;;;;;;9.40;4.55;;;;;;;10.86;100.00;100403.16;6295656;28;20114;-78
2022/11/07 08:37:47;;;;;;;9.77;5.25;;;;;;;10.96;100.00;100394.81;6296865;28;20048;-78
2022/11/07 08:40:49;;;;;;;13.07;5.40;;;;;;;11.03;100.00;100409.19;6296762;28;20048;-75
2022/11/07 08:43:50;;;;;;;11.25;5.22;;;;;;;10.96;100.00;100407.88;6295560;28;20458;-76
2022/11/07 08:46:53;;;;;;;9.05;4.97;;;;;;;11.03;100.00;100417.03;6296662;28;20048;-76
2022/11/07 08:49:54;;;;;;;9.23;4.72;;;;;;;10.97;100.00;100418.19;6294907;28;20059;-76
2022/11/07 08:52:54;;;;;;;7.47;5.00;;;;;;;11.01;100.00;100426.72;6296619;28;20037;-75
2022/11/07 08:56:06;;;;;;;5.50;4.05;;;;;;;10.91;100.00;100421.16;6296668;28;20040;-76
2022/11/07 08:59:09;;;;;;;7.85;4.70;;;;;;;10.86;100.00;100412.75;6296644;28;20036;-76
2022/11/07 09:02:11;;;;;;;9.13;4.72;;;;;;;10.98;100.00;100422.50;6296662;28;20048;-76
2022/11/07 09:05:12;;;;;;;8.20;4.82;;;;;;;11.01;100.00;100416.28;6278656;28;20140;-75
2022/11/07 09:08:13;;;;;;;8.35;4.95;;;;;;;11.04;100.00;100413.50;6295243;28;20036;-76
2022/11/07 09:11:17;;;;;;;8.27;5.07;;;;;;;11.12;100.00;100420.88;6295166;28;20070;-77
2022/11/07 09:14:18;;;;;;;7.85;4.70;;;;;;;11.13;100.00;100423.41;6296408;28;20064;-77
2022/11/07 09:17:19;;;;;;;8.15;4.78;;;;;;;11.04;100.00;100434.38;6296249;28;20391;-76
2022/11/07 09:20:24;;;;;;;6.72;4.72;;;;;;;11.07;100.00;100428.97;6299638;28;20445;-76
2022/11/07 09:23:25;;;;;;;8.15;5.15;;;;;;;11.07;100.00;100436.81;6321242;28;20487;-76
2022/11/07 09:26:28;;;;;;;6.20;4.20;;;;;;;11.04;100.00;100440.44;6320004;28;20133;-76
2022/11/07 09:29:29;;;;;;;6.88;4.15;;;;;;;10.92;100.00;100440.31;6319769;28;20123;-76
2022/11/07 09:32:30;;;;;;;10.25;5.07;;;;;;;10.86;100.00;100442.31;6321213;28;20046;-76
2022/11/07 09:35:30;;;;;;;6.93;4.60;;;;;;;10.93;100.00;100445.41;6319880;28;20150;-76
2022/11/07 09:38:31;;;;;;;5.95;4.35;;;;;;;10.95;100.00;100432.28;6319920;28;20150;-76
2022/11/07 09:42:02;;;;;;;5.80;3.90;;;;;;;10.95;100.00;100432.28;6303111;28;20048;-76
2022/11/07 09:45:03;;;;;;;7.90;4.63;;;;;;;11.03;100.00;100443.97;6320195;28;20066;-78
2022/11/07 09:48:06;;;;;;;8.35;5.10;;;;;;;11.00;100.00;100444.16;6319795;28;20200;-78
2022/11/07 09:51:13;;;;;;;13.02;5.45;;;;;;;11.09;100.00;100438.41;6321071;28;20051;-78
2022/11/07 09:54:21;;;;;;;13.10;8.15;;;;;;;11.03;100.00;100445.75;6321044;28;20048;-76
2022/11/07 09:57:23;;;;;;;28.77;16.73;;;;;;;11.02;100.00;100442.31;6302673;28;20058;-78
2022/11/07 10:00:24;;;;;;;13.90;7.97;;;;;;;10.91;100.00;100452.50;6319656;28;20044;-77
2022/11/07 10:03:25;;;;;;;21.45;12.82;;;;;;;10.98;100.00;100446.00;6322756;28;20058;-77
2022/11/07 10:06:33;;;;;;;12.68;7.05;;;;;;;10.86;100.00;100451.91;6307570;28;20064;-78
2022/11/07 10:09:42;;;;;;;12.10;6.43;;;;;;;10.84;100.00;100448.56;6307441;28;20244;-78
2022/11/07 10:12:50;;;;;;;9.88;5.97;;;;;;;10.88;100.00;100452.69;6324245;28;20048;-75
2022/11/07 10:15:55;;;;;;;9.98;6.18;;;;;;;10.95;100.00;100442.72;6313319;28;20040;-75
2022/11/07 10:19:18;;;;;;;10.40;6.20;;;;;;;10.95;100.00;100440.13;6282245;28;20446;-75
2022/11/07 10:22:34;;;;;;;10.73;5.88;;;;;;;10.94;100.00;100436.66;6282309;28;20067;-75
2022/11/07 10:25:43;;;;;;;9.70;6.38;;;;;;;11.09;100.00;100432.34;6298853;28;20052;-75
2022/11/07 10:28:51;;;;;;;9.27;5.00;;;;;;;11.05;100.00;100431.66;6298795;28;20036;-76
2022/11/07 10:32:37;;;;;;;10.52;6.35;;;;;;;11.14;100.00;100424.22;6281828;28;20071;-75
2022/11/07 10:35:43;;;;;;;12.20;6.13;;;;;;;11.23;100.00;100419.34;6283421;28;20127;-75
2022/11/07 10:38:44;;;;;;;9.85;5.57;;;;;;;11.34;100.00;100423.09;6299762;28;20044;-75
2022/11/07 10:42:07;;;;;;;10.52;6.10;;;;;;;11.16;100.00;100422.38;6281724;28;20052;-75
2022/11/07 10:45:12;;;;;;;8.63;5.63;;;;;;;11.22;100.00;100419.41;6300042;28;20107;-77
2022/11/07 10:48:13;;;;;;;11.85;6.78;;;;;;;11.27;100.00;100418.22;6286787;28;20049;-77
2022/11/07 10:51:13;;;;;;;12.07;5.65;;;;;;;11.33;100.00;100422.25;6318233;28;20048;-77
2022/11/07 10:54:26;;;;;;;12.05;6.38;;;;;;;11.22;100.00;100422.03;6323306;28;20052;-75
2022/11/07 10:57:28;;;;;;;13.40;7.38;;;;;;;11.17;100.00;100424.06;6324505;28;20044;-75
2022/11/07 11:00:31;;;;;;;6.97;4.93;;;;;;;11.22;100.00;100424.63;6324481;28;20093;-77
2022/11/07 11:03:46;;;;;;;8.38;5.88;;;;;;;11.20;100.00;100429.09;6323235;28;20043;-77
2022/11/07 11:07:00;;;;;;;12.07;6.85;;;;;;;11.21;100.00;100422.97;6306073;28;20048;-77
2022/11/07 11:10:01;;;;;;;8.18;5.40;;;;;;;11.26;100.00;100419.16;6322997;28;20115;-75
2022/11/07 11:13:02;;;;;;;8.80;5.33;;;;;;;11.20;100.00;100418.66;6322721;28;20040;-77
2022/11/07 11:16:12;;;;;;;11.38;5.85;;;;;;;11.15;100.00;100426.75;6319930;28;20051;-75
2022/11/07 11:19:21;;;;;;;8.95;5.60;;;;;;;11.13;100.00;100418.19;6285098;28;20052;-77
2022/11/07 11:22:23;;;;;;;9.13;5.57;;;;;;;11.18;100.00;100413.53;6278665;28;20245;-78
2022/11/07 11:25:24;;;;;;;;;;;;;;;11.21;100.00;100408.13;6281406;28;20049;-78
2022/11/07 11:28:39;;;;;;;8.65;5.60;;;;;;;11.24;100.00;100413.19;6271535;28;19921;-75
2022/11/07 11:31:44;;;;;;;8.75;5.30;;;;;;;11.26;100.00;100395.66;6289182;28;20049;-75
2022/11/07 11:34:51;;;;;;;7.50;4.63;;;;;;;11.34;100.00;100402.19;6289360;28;20090;-77
2022/11/07 11:38:02;;;;;;;8.95;5.30;;;;;;;11.27;100.00;100391.28;6288722;28;20041;-75
2022/11/07 11:41:12;;;;;;;8.25;5.15;;;;;;;11.21;100.00;100389.84;6273644;28;20179;-76
2022/11/07 11:44:35;;;;;;;8.40;4.40;;;;;;;11.23;100.00;100393.22;6273559;28;20120;-78
2022/11/07 11:47:40;;;;;;;11.07;5.38;;;;;;;11.18;100.00;100386.56;6289032;28;20049;-75
2022/11/07 11:50:48;;;;;;;9.52;5.32;;;;;;;11.11;100.00;100382.63;6271963;28;20041;-78
2022/11/07 11:53:49;;;;;;;11.48;6.50;;;;;;;11.20;100.00;100376.88;6255304;28;20127;-77
2022/11/07 11:56:53;;;;;;;9.88;5.45;;;;;;;11.14;100.00;100367.66;6271830;28;20056;-75
2022/11/07 12:00:15;;;;;;;9.30;4.78;;;;;;;11.13;100.00;100362.50;6272073;28;20154;-75
2022/11/07 12:03:39;;;;;;;8.85;5.10;;;;;;;11.21;100.00;100365.50;6271874;28;20053;-78
2022/11/07 12:06:47;;;;;;;11.55;4.90;;;;;;;11.15;100.00;100360.63;6288006;28;20079;-77
2022/11/07 12:09:54;;;;;;;9.82;5.43;;;;;;;11.22;100.00;100354.97;6272901;28;20045;-75
2022/11/07 12:13:00;;;;;;;8.30;4.82;;;;;;;11.29;100.00;100351.06;6272844;28;20068;-78
2022/11/07 12:16:17;;;;;;;6.88;4.72;;;;;;;11.31;100.00;100363.19;6271622;28;20556;-77
2022/11/07 12:19:24;;;;;;;8.77;5.10;;;;;;;11.35;100.00;100362.91;6288040;28;20064;-76
2022/11/07 12:22:46;;;;;;;13.00;6.63;;;;;;;11.50;100.00;100364.59;6287845;28;20120;-75
2022/11/07 12:25:58;;;;;;;8.37;5.23;;;;;;;11.56;100.00;100355.56;6272143;28;20041;-77
2022/11/07 12:29:47;;;;;;;11.77;5.82;;;;;;;11.57;100.00;100351.16;6271038;28;20822;-77
2022/11/07 12:33:13;;;;;;;9.82;5.75;;;;;;;11.54;100.00;100351.38;6294492;28;20041;-75
2022/11/07 12:36:38;;;;;;;11.65;6.32;;;;;;;11.58;100.00;100350.25;6292308;28;20044;-77
2022/11/07 12:39:58;;;;;;;9.70;5.55;;;;;;;11.72;100.00;100352.88;6270966;28;20485;-75
2022/11/07 12:43:24;;;;;;;6.97;4.75;;;;;;;11.79;100.00;100353.34;6272262;28;20041;-75
2022/11/07 12:46:52;;;;;;;7.65;5.00;;;;;;;11.89;100.00;100359.72;6287502;28;20037;-75
2022/11/07 12:50:15;;;;;;;11.48;7.45;;;;;;;11.88;100.00;100363.22;6270669;28;20401;-75
2022/11/07 12:53:37;;;;;;;7.22;4.90;;;;;;;11.87;100.00;100358.94;6287542;28;20495;-77
2022/11/07 12:56:38;;;;;;;10.53;5.80;;;;;;;11.84;100.00;100351.25;6270603;28;20128;-75
2022/11/07 12:59:43;;;;;;;7.70;4.80;;;;;;;11.83;100.00;100365.28;6287195;28;20037;-75
2022/11/07 13:03:14;;;;;;;7.65;5.03;;;;;;;11.79;100.00;100362.00;6288224;28;20059;-75
2022/11/07 13:06:27;;;;;;;9.50;5.35;;;;;;;11.80;100.00;100363.69;6270299;28;20060;-77
2022/11/07 13:09:36;;;;;;;8.13;4.53;;;;;;;11.69;100.00;100360.88;6321422;28;20044;-77
2022/11/07 13:12:43;;;;;;;13.32;6.43;;;;;;;11.71;100.00;100359.00;6320608;28;20127;-76
2022/11/07 13:15:44;;;;;;;11.68;5.45;;;;;;;11.75;100.00;100357.91;6303353;28;20052;-77
2022/11/07 13:18:45;;;;;;;8.27;5.28;;;;;;;11.72;100.00;100357.25;6320184;28;20505;-75
2022/11/07 13:21:58;;;;;;;10.63;5.47;;;;;;;11.75;100.00;100362.28;6303256;28;20051;-77
2022/11/07 13:25:07;;;;;;;;;;;;;;;11.57;100.00;100359.00;6320626;28;20093;-77
2022/11/07 13:28:23;;;;;;;16.73;7.40;;;;;;;11.59;100.00;100362.38;6320124;28;20398;-75
2022/11/07 13:31:35;;;;;;;12.20;6.85;;;;;;;11.63;100.00;100358.63;6302959;28;20052;-76
2022/11/07 13:34:58;;;;;;;33.65;10.38;;;;;;;11.71;100.00;100364.25;6303139;28;20450;-75
2022/11/07 13:38:19;;;;;;;23.52;10.80;;;;;;;11.66;100.00;100375.00;6321540;28;20047;-74
2022/11/07 13:41:20;;;;;;;30.02;13.82;;;;;;;11.64;100.00;100386.47;6283205;28;20126;-77
2022/11/07 13:44:26;;;;;;;20.05;10.00;;;;;;;11.78;100.00;100375.19;6300076;28;20139;-76
2022/11/07 13:47:34;;;;;;;14.02;7.30;;;;;;;11.64;100.00;100366.41;6299835;28;20045;-75
2022/11/07 13:50:43;;;;;;;11.77;7.50;;;;;;;11.78;100.00;100383.03;6299755;28;20044;-74
2022/11/07 13:54:03;;;;;;;12.50;7.43;;;;;;;11.79;100.00;100376.84;6299681;28;20057;-77
2022/11/07 13:57:12;;;;;;;10.45;5.80;;;;;;;11.63;100.00;100380.41;6299691;28;20051;-77
2022/11/07 14:00:15;;;;;;;10.93;6.47;;;;;;;11.72;100.00;100381.63;6300903;28;20046;-76
2022/11/07 14:03:26;;;;;;;10.52;6.15;;;;;;;11.63;100.00;100376.94;6282741;28;20213;-76
2022/11/07 14:06:30;;;;;;;9.20;5.85;;;;;;;11.52;100.00;100382.81;6299438;28;20089;-77
2022/11/07 14:09:32;;;;;;;12.88;6.63;;;;;;;11.59;100.00;100378.91;6299199;28;20033;-74